sensor_id;sensor_type;location;lat;lon;timestamp;pressure;altitude;pressure_sealevel;temperature;humidity
21290;BME280;10804;48.988;2.408;2023-05-02T00:01:25;101444.13;;;15.18;61.97
21290;BME280;10804;48.988;2.408;2023-05-02T00:03:52;101440.56;;;15.19;62.01
21290;BME280;10804;48.988;2.408;2023-05-02T00:06:20;101443.25;;;15.17;62.18
21290;BME280;10804;48.988;2.408;2023-05-02T00:08:47;101438.09;;;15.14;62.04
21290;BME280;10804;48.988;2.408;2023-05-02T00:11:15;101440.78;;;15.13;61.92
21290;BME280;10804;48.988;2.408;2023-05-02T00:13:43;101434.72;;;15.11;62.27
21290;BME280;10804;48.988;2.408;2023-05-02T00:16:11;101439.09;;;15.10;62.32
21290;BME280;10804;48.988;2.408;2023-05-02T00:18:38;101441.84;;;15.07;61.98
21290;BME280;10804;48.988;2.408;2023-05-02T00:21:05;101443.66;;;15.05;62.09
21290;BME280;10804;48.988;2.408;2023-05-02T00:23:33;101441.06;;;15.04;61.93
21290;BME280;10804;48.988;2.408;2023-05-02T00:26:01;101435.94;;;15.01;62.04
21290;BME280;10804;48.988;2.408;2023-05-02T00:28:28;101431.56;;;15.00;62.07
21290;BME280;10804;48.988;2.408;2023-05-02T00:30:57;101426.41;;;14.97;62.29
21290;BME280;10804;48.988;2.408;2023-05-02T00:33:24;101431.72;;;14.95;62.20
21290;BME280;10804;48.988;2.408;2023-05-02T00:35:51;101429.19;;;14.92;62.01
21290;BME280;10804;48.988;2.408;2023-05-02T00:38:19;101424.84;;;14.91;62.32
21290;BME280;10804;48.988;2.408;2023-05-02T00:40:47;101424.94;;;14.88;62.13
21290;BME280;10804;48.988;2.408;2023-05-02T00:43:16;101426.72;;;14.88;62.25
21290;BME280;10804;48.988;2.408;2023-05-02T00:45:44;101430.31;;;14.85;62.32
21290;BME280;10804;48.988;2.408;2023-05-02T00:48:13;101433.84;;;14.84;62.33
21290;BME280;10804;48.988;2.408;2023-05-02T00:50:42;101428.69;;;14.81;62.39
21290;BME280;10804;48.988;2.408;2023-05-02T00:53:10;101436.56;;;14.81;62.24
21290;BME280;10804;48.988;2.408;2023-05-02T00:55:37;101429.66;;;14.79;62.37
21290;BME280;10804;48.988;2.408;2023-05-02T00:58:09;101423.72;;;14.72;62.43
21290;BME280;10804;48.988;2.408;2023-05-02T01:00:54;101432.41;;;14.74;62.26
21290;BME280;10804;48.988;2.408;2023-05-02T01:03:33;101431.59;;;14.72;62.44
21290;BME280;10804;48.988;2.408;2023-05-02T01:06:10;101429.88;;;14.71;62.47
21290;BME280;10804;48.988;2.408;2023-05-02T01:08:47;101433.44;;;14.69;62.60
21290;BME280;10804;48.988;2.408;2023-05-02T01:11:25;101437.91;;;14.67;62.51
21290;BME280;10804;48.988;2.408;2023-05-02T01:13:58;101429.19;;;14.66;62.43
21290;BME280;10804;48.988;2.408;2023-05-02T01:16:27;101436.28;;;14.63;62.60
21290;BME280;10804;48.988;2.408;2023-05-02T01:18:57;101437.13;;;14.63;62.61
21290;BME280;10804;48.988;2.408;2023-05-02T01:21:25;101438.94;;;14.61;62.40
21290;BME280;10804;48.988;2.408;2023-05-02T01:23:59;101442.53;;;14.59;62.39
21290;BME280;10804;48.988;2.408;2023-05-02T01:26:34;101434.69;;;14.57;62.71
21290;BME280;10804;48.988;2.408;2023-05-02T01:29:05;101450.44;;;14.57;62.39
21290;BME280;10804;48.988;2.408;2023-05-02T01:31:34;101434.78;;;14.54;62.34
21290;BME280;10804;48.988;2.408;2023-05-02T01:34:04;101434.03;;;14.51;62.65
21290;BME280;10804;48.988;2.408;2023-05-02T01:36:33;101428.78;;;14.51;62.52
21290;BME280;10804;48.988;2.408;2023-05-02T01:39:01;101442.84;;;14.48;62.47
21290;BME280;10804;48.988;2.408;2023-05-02T01:41:31;101440.22;;;14.48;62.48
21290;BME280;10804;48.988;2.408;2023-05-02T01:44:01;101442.94;;;14.45;62.65
21290;BME280;10804;48.988;2.408;2023-05-02T01:46:33;101442.94;;;14.45;62.57
21290;BME280;10804;48.988;2.408;2023-05-02T01:49:03;101446.47;;;14.44;62.59
21290;BME280;10804;48.988;2.408;2023-05-02T01:51:32;101447.44;;;14.42;62.56
21290;BME280;10804;48.988;2.408;2023-05-02T01:54:03;101442.31;;;14.37;62.64
21290;BME280;10804;48.988;2.408;2023-05-02T01:56:33;101441.44;;;14.37;62.38
21290;BME280;10804;48.988;2.408;2023-05-02T01:59:02;101441.53;;;14.35;62.85
21290;BME280;10804;48.988;2.408;2023-05-02T02:01:34;101451.16;;;14.33;62.74
21290;BME280;10804;48.988;2.408;2023-05-02T02:04:03;101446.81;;;14.34;62.81
21290;BME280;10804;48.988;2.408;2023-05-02T02:06:32;101452.09;;;14.32;62.50
21290;BME280;10804;48.988;2.408;2023-05-02T02:08:59;101453.94;;;14.29;62.60
21290;BME280;10804;48.988;2.408;2023-05-02T02:11:33;101451.34;;;14.27;63.04
21290;BME280;10804;48.988;2.408;2023-05-02T02:14:05;101447.91;;;14.25;62.74
21290;BME280;10804;48.988;2.408;2023-05-02T02:16:37;101447.97;;;14.24;62.76
21290;BME280;10804;48.988;2.408;2023-05-02T02:19:07;101449.84;;;14.20;62.47
21290;BME280;10804;48.988;2.408;2023-05-02T02:21:36;101447.16;;;14.22;62.85
21290;BME280;10804;48.988;2.408;2023-05-02T02:24:05;101451.63;;;14.18;62.95
21290;BME280;10804;48.988;2.408;2023-05-02T02:26:33;101446.38;;;14.18;62.78
21290;BME280;10804;48.988;2.408;2023-05-02T02:29:02;101448.16;;;14.16;62.94
21290;BME280;10804;48.988;2.408;2023-05-02T02:31:30;101459.59;;;14.14;62.69
21290;BME280;10804;48.988;2.408;2023-05-02T02:33:59;101451.00;;;14.09;62.66
21290;BME280;10804;48.988;2.408;2023-05-02T02:36:31;101456.16;;;14.12;62.85
21290;BME280;10804;48.988;2.408;2023-05-02T02:39:13;101457.09;;;14.09;62.78
21290;BME280;10804;48.988;2.408;2023-05-02T02:41:48;101457.19;;;14.06;63.14
21290;BME280;10804;48.988;2.408;2023-05-02T02:44:26;101464.22;;;14.04;62.79
21290;BME280;10804;48.988;2.408;2023-05-02T02:47:00;101467.75;;;14.03;63.10
21290;BME280;10804;48.988;2.408;2023-05-02T02:49:43;101470.56;;;13.97;62.89
21290;BME280;10804;48.988;2.408;2023-05-02T02:52:20;101474.81;;;14.01;62.76
21290;BME280;10804;48.988;2.408;2023-05-02T02:54:54;101474.91;;;13.98;62.92
21290;BME280;10804;48.988;2.408;2023-05-02T02:57:29;101482.84;;;13.95;62.93
21290;BME280;10804;48.988;2.408;2023-05-02T03:00:03;101484.63;;;13.95;63.05
21290;BME280;10804;48.988;2.408;2023-05-02T03:02:32;101480.31;;;13.92;63.05
21290;BME280;10804;48.988;2.408;2023-05-02T03:05:03;101482.13;;;13.90;62.97
21290;BME280;10804;48.988;2.408;2023-05-02T03:07:31;101486.41;;;13.93;63.21
21290;BME280;10804;48.988;2.408;2023-05-02T03:10:02;101484.75;;;13.90;62.96
21290;BME280;10804;48.988;2.408;2023-05-02T03:12:32;101472.63;;;13.86;63.11
21290;BME280;10804;48.988;2.408;2023-05-02T03:15:11;101476.25;;;13.82;63.13
21290;BME280;10804;48.988;2.408;2023-05-02T03:17:42;101472.75;;;13.82;62.85
21290;BME280;10804;48.988;2.408;2023-05-02T03:20:11;101471.06;;;13.79;63.05
21290;BME280;10804;48.988;2.408;2023-05-02T03:22:38;101478.06;;;13.79;62.81
21290;BME280;10804;48.988;2.408;2023-05-02T03:25:07;101484.25;;;13.76;62.79
21290;BME280;10804;48.988;2.408;2023-05-02T03:27:35;101487.81;;;13.74;63.16
21290;BME280;10804;48.988;2.408;2023-05-02T03:30:06;101482.53;;;13.75;63.18
21290;BME280;10804;48.988;2.408;2023-05-02T03:32:34;101487.84;;;13.72;63.09
21290;BME280;10804;48.988;2.408;2023-05-02T03:35:01;101492.28;;;13.70;63.09
21290;BME280;10804;48.988;2.408;2023-05-02T03:37:36;101486.22;;;13.68;63.07
21290;BME280;10804;48.988;2.408;2023-05-02T03:40:05;101487.97;;;13.68;63.02
21290;BME280;10804;48.988;2.408;2023-05-02T03:42:33;101489.00;;;13.62;63.18
21290;BME280;10804;48.988;2.408;2023-05-02T03:45:06;101496.78;;;13.65;63.36
21290;BME280;10804;48.988;2.408;2023-05-02T03:47:34;101495.06;;;13.64;63.05
21290;BME280;10804;48.988;2.408;2023-05-02T03:50:01;101492.50;;;13.63;62.90
21290;BME280;10804;48.988;2.408;2023-05-02T03:52:30;101506.47;;;13.62;63.38
21290;BME280;10804;48.988;2.408;2023-05-02T03:54:59;101497.81;;;13.58;63.36
21290;BME280;10804;48.988;2.408;2023-05-02T03:57:28;101505.75;;;13.57;63.29
21290;BME280;10804;48.988;2.408;2023-05-02T03:59:56;101504.88;;;13.56;63.27
21290;BME280;10804;48.988;2.408;2023-05-02T04:02:28;101500.53;;;13.55;63.25
21290;BME280;10804;48.988;2.408;2023-05-02T04:04:57;101502.34;;;13.53;62.96
21290;BME280;10804;48.988;2.408;2023-05-02T04:07:24;101505.03;;;13.50;63.05
21290;BME280;10804;48.988;2.408;2023-05-02T04:10:00;101502.47;;;13.49;62.94
21290;BME280;10804;48.988;2.408;2023-05-02T04:12:30;101504.22;;;13.48;63.30
21290;BME280;10804;48.988;2.408;2023-05-02T04:14:58;101499.06;;;13.45;63.36
21290;BME280;10804;48.988;2.408;2023-05-02T04:17:28;101498.16;;;13.46;63.25
21290;BME280;10804;48.988;2.408;2023-05-02T04:19:56;101498.28;;;13.42;63.09
21290;BME280;10804;48.988;2.408;2023-05-02T04:22:26;101493.09;;;13.39;63.24
21290;BME280;10804;48.988;2.408;2023-05-02T04:24:58;101504.44;;;13.39;63.12
21290;BME280;10804;48.988;2.408;2023-05-02T04:27:28;101508.88;;;13.37;63.17
21290;BME280;10804;48.988;2.408;2023-05-02T04:29:56;101513.22;;;13.38;63.45
21290;BME280;10804;48.988;2.408;2023-05-02T04:32:24;101517.66;;;13.35;63.14
21290;BME280;10804;48.988;2.408;2023-05-02T04:34:52;101522.00;;;13.36;63.30
21290;BME280;10804;48.988;2.408;2023-05-02T04:37:21;101523.81;;;13.34;63.15
21290;BME280;10804;48.988;2.408;2023-05-02T04:39:49;101522.13;;;13.31;63.11
21290;BME280;10804;48.988;2.408;2023-05-02T04:42:20;101528.16;;;13.33;63.15
21290;BME280;10804;48.988;2.408;2023-05-02T04:45:13;101530.91;;;13.29;63.32
21290;BME280;10804;48.988;2.408;2023-05-02T04:47:42;101537.03;;;13.29;63.31
21290;BME280;10804;48.988;2.408;2023-05-02T04:50:10;101544.03;;;13.27;63.50
21290;BME280;10804;48.988;2.408;2023-05-02T04:52:37;101546.72;;;13.26;63.73
21290;BME280;10804;48.988;2.408;2023-05-02T04:55:05;101541.50;;;13.24;63.51
21290;BME280;10804;48.988;2.408;2023-05-02T04:57:33;101541.50;;;13.24;63.50
21290;BME280;10804;48.988;2.408;2023-05-02T05:00:02;101545.94;;;13.21;63.22
21290;BME280;10804;48.988;2.408;2023-05-02T05:02:32;101551.19;;;13.21;63.37
21290;BME280;10804;48.988;2.408;2023-05-02T05:05:00;101546.94;;;13.17;63.38
21290;BME280;10804;48.988;2.408;2023-05-02T05:07:28;101561.69;;;13.19;63.18
21290;BME280;10804;48.988;2.408;2023-05-02T05:09:56;101560.84;;;13.19;63.44
21290;BME280;10804;48.988;2.408;2023-05-02T05:12:27;101562.59;;;13.18;63.55
21290;BME280;10804;48.988;2.408;2023-05-02T05:14:54;101564.34;;;13.18;63.56
21290;BME280;10804;48.988;2.408;2023-05-02T05:17:24;101567.81;;;13.18;63.28
21290;BME280;10804;48.988;2.408;2023-05-02T05:19:53;101573.06;;;13.18;63.54
21290;BME280;10804;48.988;2.408;2023-05-02T05:22:21;101562.69;;;13.14;63.25
21290;BME280;10804;48.988;2.408;2023-05-02T05:24:50;101581.81;;;13.17;63.51
21290;BME280;10804;48.988;2.408;2023-05-02T05:27:19;101591.44;;;13.17;63.36
21290;BME280;10804;48.988;2.408;2023-05-02T05:29:47;101585.34;;;13.16;63.13
21290;BME280;10804;48.988;2.408;2023-05-02T05:32:15;101586.25;;;13.15;63.47
21290;BME280;10804;48.988;2.408;2023-05-02T05:34:43;101585.34;;;13.16;63.31
21290;BME280;10804;48.988;2.408;2023-05-02T05:37:13;101587.94;;;13.18;63.48
21290;BME280;10804;48.988;2.408;2023-05-02T05:39:41;101591.44;;;13.17;63.35
21290;BME280;10804;48.988;2.408;2023-05-02T05:42:09;101594.00;;;13.18;63.17
21290;BME280;10804;48.988;2.408;2023-05-02T05:44:38;101597.53;;;13.17;63.11
21290;BME280;10804;48.988;2.408;2023-05-02T05:47:07;101595.78;;;13.18;63.21
21290;BME280;10804;48.988;2.408;2023-05-02T05:49:35;101599.25;;;13.18;63.28
21290;BME280;10804;48.988;2.408;2023-05-02T05:52:02;101599.22;;;13.21;63.06
21290;BME280;10804;48.988;2.408;2023-05-02T05:54:32;101607.91;;;13.22;63.20
21290;BME280;10804;48.988;2.408;2023-05-02T05:57:00;101608.78;;;13.22;63.05
21290;BME280;10804;48.988;2.408;2023-05-02T05:59:28;101618.34;;;13.23;63.22
21290;BME280;10804;48.988;2.408;2023-05-02T06:01:55;101622.69;;;13.26;63.02
21290;BME280;10804;48.988;2.408;2023-05-02T06:04:24;101629.66;;;13.25;63.29
21290;BME280;10804;48.988;2.408;2023-05-02T06:06:52;101632.22;;;13.28;62.91
21290;BME280;10804;48.988;2.408;2023-05-02T06:09:20;101637.47;;;13.28;63.01
21290;BME280;10804;48.988;2.408;2023-05-02T06:11:48;101642.66;;;13.30;63.17
21290;BME280;10804;48.988;2.408;2023-05-02T06:14:16;101641.75;;;13.31;62.88
21290;BME280;10804;48.988;2.408;2023-05-02T06:16:46;101645.22;;;13.33;62.74
21290;BME280;10804;48.988;2.408;2023-05-02T06:19:14;101646.06;;;13.33;62.84
21290;BME280;10804;48.988;2.408;2023-05-02T06:21:41;101659.16;;;13.35;63.06
21290;BME280;10804;48.988;2.408;2023-05-02T06:24:09;101645.16;;;13.36;62.77
21290;BME280;10804;48.988;2.408;2023-05-02T06:26:36;101649.47;;;13.38;62.65
21290;BME280;10804;48.988;2.408;2023-05-02T06:29:05;101652.91;;;13.40;62.67
21290;BME280;10804;48.988;2.408;2023-05-02T06:31:32;101659.84;;;13.41;62.76
21290;BME280;10804;48.988;2.408;2023-05-02T06:33:59;101658.97;;;13.42;62.89
21290;BME280;10804;48.988;2.408;2023-05-02T06:36:27;101665.00;;;13.46;62.61
21290;BME280;10804;48.988;2.408;2023-05-02T06:38:55;101659.81;;;13.44;62.45
21290;BME280;10804;48.988;2.408;2023-05-02T06:41:22;101663.25;;;13.46;62.72
21290;BME280;10804;48.988;2.408;2023-05-02T06:43:49;101674.53;;;13.50;62.68
21290;BME280;10804;48.988;2.408;2023-05-02T06:46:18;101670.13;;;13.50;62.53
21290;BME280;10804;48.988;2.408;2023-05-02T06:48:45;101678.84;;;13.52;62.65
21290;BME280;10804;48.988;2.408;2023-05-02T06:51:13;101674.44;;;13.53;62.57
21290;BME280;10804;48.988;2.408;2023-05-02T06:53:41;101675.28;;;13.55;62.07
21290;BME280;10804;48.988;2.408;2023-05-02T06:56:08;101676.94;;;13.59;62.51
21290;BME280;10804;48.988;2.408;2023-05-02T06:58:35;101678.66;;;13.60;62.05
21290;BME280;10804;48.988;2.408;2023-05-02T07:01:02;101673.38;;;13.61;62.17
21290;BME280;10804;48.988;2.408;2023-05-02T07:03:31;101677.69;;;13.64;62.30
21290;BME280;10804;48.988;2.408;2023-05-02T07:05:59;101679.41;;;13.65;61.97
21290;BME280;10804;48.988;2.408;2023-05-02T07:08:27;101674.97;;;13.68;61.89
21290;BME280;10804;48.988;2.408;2023-05-02T07:10:54;101679.31;;;13.69;62.07
21290;BME280;10804;48.988;2.408;2023-05-02T07:13:21;101679.28;;;13.71;61.96
21290;BME280;10804;48.988;2.408;2023-05-02T07:15:48;101688.81;;;13.73;61.92
21290;BME280;10804;48.988;2.408;2023-05-02T07:18:16;101671.34;;;13.72;62.04
21290;BME280;10804;48.988;2.408;2023-05-02T07:20:44;101686.97;;;13.77;61.88
21290;BME280;10804;48.988;2.408;2023-05-02T07:23:12;101686.97;;;13.78;61.86
21290;BME280;10804;48.988;2.408;2023-05-02T07:25:39;101692.13;;;13.81;61.88
21290;BME280;10804;48.988;2.408;2023-05-02T07:28:07;101682.47;;;13.83;61.65
21290;BME280;10804;48.988;2.408;2023-05-02T07:30:34;101692.06;;;13.84;61.89
21290;BME280;10804;48.988;2.408;2023-05-02T07:33:01;101691.13;;;13.87;61.62
21290;BME280;10804;48.988;2.408;2023-05-02T07:35:28;101696.28;;;13.90;61.87
21290;BME280;10804;48.988;2.408;2023-05-02T07:37:57;101696.22;;;13.93;61.99
21290;BME280;10804;48.988;2.408;2023-05-02T07:40:25;101697.09;;;13.93;61.70
21290;BME280;10804;48.988;2.408;2023-05-02T07:42:53;101709.28;;;13.94;61.62
21290;BME280;10804;48.988;2.408;2023-05-02T07:45:20;101696.97;;;13.98;61.54
21290;BME280;10804;48.988;2.408;2023-05-02T07:47:48;101706.53;;;14.00;61.51
21290;BME280;10804;48.988;2.408;2023-05-02T07:50:15;101720.47;;;14.02;61.54
21290;BME280;10804;48.988;2.408;2023-05-02T07:52:42;101716.03;;;14.04;61.44
21290;BME280;10804;48.988;2.408;2023-05-02T07:55:11;101725.59;;;14.07;61.54
21290;BME280;10804;48.988;2.408;2023-05-02T07:57:40;101723.75;;;14.10;61.36
21290;BME280;10804;48.988;2.408;2023-05-02T08:00:08;101718.50;;;14.12;61.51
21290;BME280;10804;48.988;2.408;2023-05-02T08:02:40;101716.69;;;14.14;61.67
21290;BME280;10804;48.988;2.408;2023-05-02T08:05:07;101723.63;;;14.16;61.34
21290;BME280;10804;48.988;2.408;2023-05-02T08:07:35;101721.81;;;14.20;61.48
21290;BME280;10804;48.988;2.408;2023-05-02T08:10:03;101726.13;;;14.22;61.40
21290;BME280;10804;48.988;2.408;2023-05-02T08:12:31;101726.09;;;14.24;61.43
21290;BME280;10804;48.988;2.408;2023-05-02T08:15:03;101728.66;;;14.27;61.51
21290;BME280;10804;48.988;2.408;2023-05-02T08:17:31;101730.34;;;14.29;61.27
21290;BME280;10804;48.988;2.408;2023-05-02T08:19:58;101732.03;;;14.32;61.32
21290;BME280;10804;48.988;2.408;2023-05-02T08:22:25;101736.31;;;14.34;61.39
21290;BME280;10804;48.988;2.408;2023-05-02T08:24:53;101741.50;;;14.37;61.40
21290;BME280;10804;48.988;2.408;2023-05-02T08:27:20;101743.22;;;14.38;61.22
21290;BME280;10804;48.988;2.408;2023-05-02T08:29:48;101744.84;;;14.42;61.35
21290;BME280;10804;48.988;2.408;2023-05-02T08:32:16;101751.84;;;14.43;61.43
21290;BME280;10804;48.988;2.408;2023-05-02T08:34:43;101755.25;;;14.47;61.19
21290;BME280;10804;48.988;2.408;2023-05-02T08:37:10;101748.22;;;14.47;61.17
21290;BME280;10804;48.988;2.408;2023-05-02T08:39:38;101760.41;;;14.51;61.21
21290;BME280;10804;48.988;2.408;2023-05-02T08:42:06;101752.53;;;14.51;61.23
21290;BME280;10804;48.988;2.408;2023-05-02T08:44:33;101763.81;;;14.55;61.03
21290;BME280;10804;48.988;2.408;2023-05-02T08:47:02;101771.63;;;14.56;60.99
21290;BME280;10804;48.988;2.408;2023-05-02T08:49:31;101774.19;;;14.59;61.17
21290;BME280;10804;48.988;2.408;2023-05-02T08:51:59;101781.13;;;14.62;61.27
21290;BME280;10804;48.988;2.408;2023-05-02T08:54:27;101782.78;;;14.64;60.90
21290;BME280;10804;48.988;2.408;2023-05-02T08:56:55;101791.50;;;14.66;61.07
21290;BME280;10804;48.988;2.408;2023-05-02T08:59:24;101784.44;;;14.68;60.74
21290;BME280;10804;48.988;2.408;2023-05-02T09:01:57;101780.91;;;14.69;60.81
21290;BME280;10804;48.988;2.408;2023-05-02T09:04:30;101789.63;;;14.71;60.94
21290;BME280;10804;48.988;2.408;2023-05-02T09:06:58;101779.97;;;14.73;60.87
21290;BME280;10804;48.988;2.408;2023-05-02T09:09:25;101786.88;;;14.76;60.77
21290;BME280;10804;48.988;2.408;2023-05-02T09:11:54;101787.75;;;14.76;60.80
21290;BME280;10804;48.988;2.408;2023-05-02T09:14:21;101783.31;;;14.78;60.81
21290;BME280;10804;48.988;2.408;2023-05-02T09:16:49;101780.63;;;14.81;60.76
21290;BME280;10804;48.988;2.408;2023-05-02T09:19:23;101783.19;;;14.83;60.61
21290;BME280;10804;48.988;2.408;2023-05-02T09:21:58;101787.50;;;14.85;60.73
21290;BME280;10804;48.988;2.408;2023-05-02T09:24:26;101792.66;;;14.88;60.78
21290;BME280;10804;48.988;2.408;2023-05-02T09:26:58;101797.84;;;14.91;60.75
21290;BME280;10804;48.988;2.408;2023-05-02T09:29:27;101794.31;;;14.92;60.44
21290;BME280;10804;48.988;2.408;2023-05-02T09:31:55;101795.97;;;14.96;60.67
21290;BME280;10804;48.988;2.408;2023-05-02T09:34:23;101798.53;;;14.98;60.43
21290;BME280;10804;48.988;2.408;2023-05-02T09:36:52;101798.47;;;15.01;60.45
21290;BME280;10804;48.988;2.408;2023-05-02T09:39:21;101801.00;;;15.04;60.38
21290;BME280;10804;48.988;2.408;2023-05-02T09:41:49;101799.16;;;15.07;60.54
21290;BME280;10804;48.988;2.408;2023-05-02T09:44:17;101804.31;;;15.10;60.49
21290;BME280;10804;48.988;2.408;2023-05-02T09:46:46;101801.63;;;15.13;60.27
21290;BME280;10804;48.988;2.408;2023-05-02T09:49:14;101807.59;;;15.18;60.15
21290;BME280;10804;48.988;2.408;2023-05-02T09:51:44;101806.66;;;15.21;60.27
21290;BME280;10804;48.988;2.408;2023-05-02T09:54:13;101816.25;;;15.23;60.25
21290;BME280;10804;48.988;2.408;2023-05-02T09:56:51;101802.97;;;15.28;60.09
21290;BME280;10804;48.988;2.408;2023-05-02T09:59:18;101810.78;;;15.31;60.13
21290;BME280;10804;48.988;2.408;2023-05-02T10:01:55;101811.59;;;15.34;60.17
21290;BME280;10804;48.988;2.408;2023-05-02T10:04:24;101813.22;;;15.38;59.93
21290;BME280;10804;48.988;2.408;2023-05-02T10:06:53;101814.00;;;15.42;60.16
21290;BME280;10804;48.988;2.408;2023-05-02T10:09:22;101813.06;;;15.44;59.97
21290;BME280;10804;48.988;2.408;2023-05-02T10:11:51;101815.59;;;15.47;60.09
21290;BME280;10804;48.988;2.408;2023-05-02T10:14:20;101820.78;;;15.50;59.96
21290;BME280;10804;48.988;2.408;2023-05-02T10:16:54;101816.28;;;15.54;59.96
21290;BME280;10804;48.988;2.408;2023-05-02T10:19:23;101811.81;;;15.57;59.87
21290;BME280;10804;48.988;2.408;2023-05-02T10:21:53;101812.56;;;15.61;59.78
21290;BME280;10804;48.988;2.408;2023-05-02T10:24:23;101813.31;;;15.64;59.79
21290;BME280;10804;48.988;2.408;2023-05-02T10:26:51;101813.25;;;15.67;59.74
21290;BME280;10804;48.988;2.408;2023-05-02T10:29:19;101816.66;;;15.71;59.73
21290;BME280;10804;48.988;2.408;2023-05-02T10:31:48;101811.34;;;15.72;59.75
21290;BME280;10804;48.988;2.408;2023-05-02T10:34:17;101816.50;;;15.77;59.55
21290;BME280;10804;48.988;2.408;2023-05-02T10:36:45;101819.88;;;15.80;59.67
21290;BME280;10804;48.988;2.408;2023-05-02T10:39:12;101811.91;;;15.83;59.61
21290;BME280;10804;48.988;2.408;2023-05-02T10:41:41;101814.41;;;15.86;59.49
21290;BME280;10804;48.988;2.408;2023-05-02T10:44:09;101822.25;;;15.89;59.59
21290;BME280;10804;48.988;2.408;2023-05-02T10:46:38;101813.41;;;15.91;59.48
21290;BME280;10804;48.988;2.408;2023-05-02T10:49:07;101815.97;;;15.93;59.39
21290;BME280;10804;48.988;2.408;2023-05-02T10:51:36;101822.00;;;15.96;59.46
21290;BME280;10804;48.988;2.408;2023-05-02T10:54:23;101824.47;;;16.01;59.40
21290;BME280;10804;48.988;2.408;2023-05-02T10:57:03;101813.88;;;16.04;59.54
21290;BME280;10804;48.988;2.408;2023-05-02T10:59:33;101813.88;;;16.04;59.36
21290;BME280;10804;48.988;2.408;2023-05-02T11:02:01;101818.94;;;16.10;59.31
21290;BME280;10804;48.988;2.408;2023-05-02T11:05:02;101809.13;;;16.15;59.33
21290;BME280;10804;48.988;2.408;2023-05-02T11:07:35;101811.66;;;16.18;59.29
21290;BME280;10804;48.988;2.408;2023-05-02T11:10:25;101805.41;;;16.22;59.32
21290;BME280;10804;48.988;2.408;2023-05-02T11:12:57;101813.19;;;16.25;59.25
21290;BME280;10804;48.988;2.408;2023-05-02T11:15:54;101810.41;;;16.29;59.33
21290;BME280;10804;48.988;2.408;2023-05-02T11:18:22;101807.69;;;16.32;59.20
21290;BME280;10804;48.988;2.408;2023-05-02T11:20:50;101812.84;;;16.37;59.16
21290;BME280;10804;48.988;2.408;2023-05-02T11:23:23;101804.81;;;16.41;58.99
21290;BME280;10804;48.988;2.408;2023-05-02T11:25:54;101804.66;;;16.46;59.14
21290;BME280;10804;48.988;2.408;2023-05-02T11:28:43;101805.38;;;16.51;59.00
21290;BME280;10804;48.988;2.408;2023-05-02T11:34:41;101813.84;;;16.60;59.03
21290;BME280;10804;48.988;2.408;2023-05-02T11:37:12;101815.47;;;16.63;59.05
21290;BME280;10804;48.988;2.408;2023-05-02T11:39:40;101812.66;;;16.69;58.90
21290;BME280;10804;48.988;2.408;2023-05-02T11:42:08;101817.84;;;16.72;58.90
21290;BME280;10804;48.988;2.408;2023-05-02T11:44:57;101821.13;;;16.78;58.79
21290;BME280;10804;48.988;2.408;2023-05-02T11:47:26;101814.88;;;16.81;58.84
21290;BME280;10804;48.988;2.408;2023-05-02T11:49:54;101805.09;;;16.84;58.85
21290;BME280;10804;48.988;2.408;2023-05-02T11:52:22;101811.13;;;16.88;58.67
21290;BME280;10804;48.988;2.408;2023-05-02T11:54:52;101805.75;;;16.91;58.73
21290;BME280;10804;48.988;2.408;2023-05-02T11:57:20;101805.63;;;16.94;58.50
21290;BME280;10804;48.988;2.408;2023-05-02T11:59:48;101803.75;;;16.97;58.67
21290;BME280;10804;48.988;2.408;2023-05-02T12:02:18;101813.28;;;17.01;58.60
21290;BME280;10804;48.988;2.408;2023-05-02T12:04:46;101811.41;;;17.05;58.48
21290;BME280;10804;48.988;2.408;2023-05-02T12:07:13;101814.78;;;17.08;58.47
21290;BME280;10804;48.988;2.408;2023-05-02T12:09:50;101817.28;;;17.13;58.58
21290;BME280;10804;48.988;2.408;2023-05-02T12:12:20;101811.88;;;17.16;58.52
21290;BME280;10804;48.988;2.408;2023-05-02T12:14:48;101813.53;;;17.18;58.35
21290;BME280;10804;48.988;2.408;2023-05-02T12:17:15;101814.41;;;17.19;58.26
21290;BME280;10804;48.988;2.408;2023-05-02T12:19:44;101808.84;;;17.26;58.36
21290;BME280;10804;48.988;2.408;2023-05-02T12:22:13;101824.50;;;17.31;58.32
21290;BME280;10804;48.988;2.408;2023-05-02T12:24:41;101817.34;;;17.34;58.28
21290;BME280;10804;48.988;2.408;2023-05-02T12:27:10;101816.38;;;17.38;58.24
21290;BME280;10804;48.988;2.408;2023-05-02T12:29:39;101819.66;;;17.45;58.12
21290;BME280;10804;48.988;2.408;2023-05-02T12:32:06;101802.22;;;17.41;58.08
21290;BME280;10804;48.988;2.408;2023-05-02T12:34:34;101824.66;;;17.52;58.10
21290;BME280;10804;48.988;2.408;2023-05-02T12:37:04;101821.84;;;17.57;58.08
21290;BME280;10804;48.988;2.408;2023-05-02T12:39:36;101825.22;;;17.60;58.19
21290;BME280;10804;48.988;2.408;2023-05-02T12:42:10;101827.88;;;17.60;58.01
21290;BME280;10804;48.988;2.408;2023-05-02T12:44:38;101844.19;;;17.70;58.00
21290;BME280;10804;48.988;2.408;2023-05-02T12:47:06;101845.03;;;17.72;57.79
21290;BME280;10804;48.988;2.408;2023-05-02T12:49:47;101842.25;;;17.75;58.01
21290;BME280;10804;48.988;2.408;2023-05-02T12:52:16;101853.50;;;17.80;57.81
21290;BME280;10804;48.988;2.408;2023-05-02T12:54:43;101846.38;;;17.82;57.94
21290;BME280;10804;48.988;2.408;2023-05-02T12:57:21;101849.78;;;17.85;57.73
21290;BME280;10804;48.988;2.408;2023-05-02T12:59:51;101853.16;;;17.89;57.71
21290;BME280;10804;48.988;2.408;2023-05-02T13:02:19;101853.91;;;17.92;57.57
21290;BME280;10804;48.988;2.408;2023-05-02T13:04:47;101847.53;;;17.98;57.71
21290;BME280;10804;48.988;2.408;2023-05-02T13:07:16;101849.16;;;18.02;57.69